sensor_id;sensor_type;location;lat;lon;timestamp;P1;durP1;ratioP1;P2;durP2;ratioP2
4694;SDS011;2361;49.540;8.390;2023-04-27T00:01:20;2.90;;;2.70;;
4694;SDS011;2361;49.540;8.390;2023-04-27T00:03:47;5.10;;;3.10;;
4694;SDS011;2361;49.540;8.390;2023-04-27T00:06:14;6.60;;;3.20;;
4694;SDS011;2361;49.540;8.390;2023-04-27T00:08:41;3.23;;;2.93;;
4694;SDS011;2361;49.540;8.390;2023-04-27T00:11:08;3.37;;;2.60;;
4694;SDS011;2361;49.540;8.390;2023-04-27T00:13:35;2.77;;;2.57;;
4694;SDS011;2361;49.540;8.390;2023-04-27T00:16:02;3.17;;;2.97;;
4694;SDS011;2361;49.540;8.390;2023-04-27T00:18:29;3.20;;;2.90;;
4694;SDS011;2361;49.540;8.390;2023-04-27T00:20:58;3.20;;;2.90;;
4694;SDS011;2361;49.540;8.390;2023-04-27T00:23:26;7.23;;;3.17;;
4694;SDS011;2361;49.540;8.390;2023-04-27T00:25:53;9.33;;;3.20;;
4694;SDS011;2361;49.540;8.390;2023-04-27T00:28:20;5.33;;;3.97;;
4694;SDS011;2361;49.540;8.390;2023-04-27T00:30:47;2.90;;;2.70;;
4694;SDS011;2361;49.540;8.390;2023-04-27T00:33:15;4.47;;;2.53;;
4694;SDS011;2361;49.540;8.390;2023-04-27T00:35:42;2.63;;;2.50;;
4694;SDS011;2361;49.540;8.390;2023-04-27T00:38:09;2.90;;;2.70;;
4694;SDS011;2361;49.540;8.390;2023-04-27T00:40:37;2.70;;;2.50;;
4694;SDS011;2361;49.540;8.390;2023-04-27T00:43:04;4.40;;;3.17;;
4694;SDS011;2361;49.540;8.390;2023-04-27T00:45:40;2.70;;;2.50;;
4694;SDS011;2361;49.540;8.390;2023-04-27T00:48:09;4.17;;;2.93;;
4694;SDS011;2361;49.540;8.390;2023-04-27T00:50:36;4.70;;;2.97;;
4694;SDS011;2361;49.540;8.390;2023-04-27T00:53:04;4.47;;;3.80;;
4694;SDS011;2361;49.540;8.390;2023-04-27T00:55:32;5.00;;;3.57;;
4694;SDS011;2361;49.540;8.390;2023-04-27T00:57:59;3.93;;;3.53;;
4694;SDS011;2361;49.540;8.390;2023-04-27T01:00:26;3.90;;;3.13;;
4694;SDS011;2361;49.540;8.390;2023-04-27T01:02:53;4.67;;;3.40;;
4694;SDS011;2361;49.540;8.390;2023-04-27T01:05:23;5.87;;;3.57;;
4694;SDS011;2361;49.540;8.390;2023-04-27T01:07:51;5.00;;;3.30;;
4694;SDS011;2361;49.540;8.390;2023-04-27T01:10:17;9.93;;;3.30;;
4694;SDS011;2361;49.540;8.390;2023-04-27T01:12:44;4.70;;;3.40;;
4694;SDS011;2361;49.540;8.390;2023-04-27T01:15:11;3.67;;;3.03;;
4694;SDS011;2361;49.540;8.390;2023-04-27T01:17:38;4.03;;;3.50;;
4694;SDS011;2361;49.540;8.390;2023-04-27T01:20:07;4.40;;;3.10;;
4694;SDS011;2361;49.540;8.390;2023-04-27T01:22:36;2.40;;;2.30;;
4694;SDS011;2361;49.540;8.390;2023-04-27T01:25:03;4.13;;;2.90;;
4694;SDS011;2361;49.540;8.390;2023-04-27T01:27:31;3.03;;;2.73;;
4694;SDS011;2361;49.540;8.390;2023-04-27T01:29:58;4.23;;;3.00;;
4694;SDS011;2361;49.540;8.390;2023-04-27T01:32:25;9.67;;;2.57;;
4694;SDS011;2361;49.540;8.390;2023-04-27T01:34:52;2.77;;;2.53;;
4694;SDS011;2361;49.540;8.390;2023-04-27T01:37:19;3.10;;;2.63;;
4694;SDS011;2361;49.540;8.390;2023-04-27T01:39:46;3.40;;;3.10;;
4694;SDS011;2361;49.540;8.390;2023-04-27T01:42:13;5.10;;;3.30;;
4694;SDS011;2361;49.540;8.390;2023-04-27T01:44:40;3.43;;;2.80;;
4694;SDS011;2361;49.540;8.390;2023-04-27T01:47:07;2.80;;;2.60;;
4694;SDS011;2361;49.540;8.390;2023-04-27T01:49:34;4.30;;;2.90;;
4694;SDS011;2361;49.540;8.390;2023-04-27T01:52:01;2.93;;;2.73;;
4694;SDS011;2361;49.540;8.390;2023-04-27T01:54:28;2.90;;;2.70;;
4694;SDS011;2361;49.540;8.390;2023-04-27T01:56:55;4.57;;;3.23;;
4694;SDS011;2361;49.540;8.390;2023-04-27T01:59:23;3.07;;;2.83;;
4694;SDS011;2361;49.540;8.390;2023-04-27T02:01:50;4.93;;;3.40;;
4694;SDS011;2361;49.540;8.390;2023-04-27T02:04:18;3.17;;;2.83;;
4694;SDS011;2361;49.540;8.390;2023-04-27T02:06:45;2.60;;;2.50;;
4694;SDS011;2361;49.540;8.390;2023-04-27T02:09:12;2.73;;;2.63;;
4694;SDS011;2361;49.540;8.390;2023-04-27T02:11:39;2.80;;;2.60;;
4694;SDS011;2361;49.540;8.390;2023-04-27T02:14:06;5.50;;;3.70;;
4694;SDS011;2361;49.540;8.390;2023-04-27T02:16:33;6.17;;;3.40;;
4694;SDS011;2361;49.540;8.390;2023-04-27T02:19:01;6.53;;;4.50;;
4694;SDS011;2361;49.540;8.390;2023-04-27T02:21:29;5.57;;;4.40;;
4694;SDS011;2361;49.540;8.390;2023-04-27T02:23:56;3.30;;;3.00;;
4694;SDS011;2361;49.540;8.390;2023-04-27T02:26:23;3.47;;;3.00;;
4694;SDS011;2361;49.540;8.390;2023-04-27T02:28:54;3.87;;;3.47;;
4694;SDS011;2361;49.540;8.390;2023-04-27T02:31:24;4.20;;;3.80;;
4694;SDS011;2361;49.540;8.390;2023-04-27T02:33:52;3.13;;;2.83;;
4694;SDS011;2361;49.540;8.390;2023-04-27T02:36:19;3.77;;;3.20;;
4694;SDS011;2361;49.540;8.390;2023-04-27T02:38:46;3.80;;;3.37;;
4694;SDS011;2361;49.540;8.390;2023-04-27T02:41:13;4.53;;;3.20;;
4694;SDS011;2361;49.540;8.390;2023-04-27T02:43:40;6.77;;;4.03;;
4694;SDS011;2361;49.540;8.390;2023-04-27T02:46:07;3.50;;;3.20;;
4694;SDS011;2361;49.540;8.390;2023-04-27T02:48:34;4.00;;;3.53;;
4694;SDS011;2361;49.540;8.390;2023-04-27T02:51:04;4.77;;;3.90;;
4694;SDS011;2361;49.540;8.390;2023-04-27T02:53:31;5.27;;;4.10;;
4694;SDS011;2361;49.540;8.390;2023-04-27T02:55:58;4.63;;;4.20;;
4694;SDS011;2361;49.540;8.390;2023-04-27T02:58:25;8.53;;;4.40;;
4694;SDS011;2361;49.540;8.390;2023-04-27T03:00:55;5.60;;;3.97;;
4694;SDS011;2361;49.540;8.390;2023-04-27T03:03:23;5.40;;;4.40;;
4694;SDS011;2361;49.540;8.390;2023-04-27T03:05:50;7.17;;;4.57;;
4694;SDS011;2361;49.540;8.390;2023-04-27T03:08:17;5.67;;;4.20;;
4694;SDS011;2361;49.540;8.390;2023-04-27T03:10:44;4.77;;;4.00;;
4694;SDS011;2361;49.540;8.390;2023-04-27T03:13:13;5.70;;;4.33;;
4694;SDS011;2361;49.540;8.390;2023-04-27T03:15:41;5.30;;;4.40;;
4694;SDS011;2361;49.540;8.390;2023-04-27T03:18:08;6.17;;;4.47;;
4694;SDS011;2361;49.540;8.390;2023-04-27T03:20:35;6.27;;;4.70;;
4694;SDS011;2361;49.540;8.390;2023-04-27T03:23:02;7.03;;;3.97;;
4694;SDS011;2361;49.540;8.390;2023-04-27T03:25:29;4.77;;;4.20;;
4694;SDS011;2361;49.540;8.390;2023-04-27T03:27:56;5.53;;;4.50;;
4694;SDS011;2361;49.540;8.390;2023-04-27T03:30:23;5.93;;;4.20;;
4694;SDS011;2361;49.540;8.390;2023-04-27T03:32:49;4.67;;;3.47;;
4694;SDS011;2361;49.540;8.390;2023-04-27T03:35:16;5.77;;;3.47;;
4694;SDS011;2361;49.540;8.390;2023-04-27T03:37:43;3.77;;;3.27;;
4694;SDS011;2361;49.540;8.390;2023-04-27T03:40:11;2.90;;;2.70;;
4694;SDS011;2361;49.540;8.390;2023-04-27T03:42:39;4.00;;;3.50;;
4694;SDS011;2361;49.540;8.390;2023-04-27T03:45:06;7.87;;;4.50;;
4694;SDS011;2361;49.540;8.390;2023-04-27T03:47:34;3.20;;;2.90;;
4694;SDS011;2361;49.540;8.390;2023-04-27T03:50:01;3.60;;;3.27;;
4694;SDS011;2361;49.540;8.390;2023-04-27T03:52:29;3.50;;;3.20;;
4694;SDS011;2361;49.540;8.390;2023-04-27T03:54:56;3.80;;;3.50;;
4694;SDS011;2361;49.540;8.390;2023-04-27T03:57:23;4.03;;;3.65;;
4694;SDS011;2361;49.540;8.390;2023-04-27T03:59:50;3.70;;;3.13;;
4694;SDS011;2361;49.540;8.390;2023-04-27T04:02:17;5.57;;;4.33;;
4694;SDS011;2361;49.540;8.390;2023-04-27T04:04:44;5.50;;;4.10;;
4694;SDS011;2361;49.540;8.390;2023-04-27T04:07:11;5.53;;;4.30;;
4694;SDS011;2361;49.540;8.390;2023-04-27T04:09:38;6.17;;;4.00;;
4694;SDS011;2361;49.540;8.390;2023-04-27T04:12:06;4.63;;;4.10;;
4694;SDS011;2361;49.540;8.390;2023-04-27T04:14:32;5.40;;;3.70;;
4694;SDS011;2361;49.540;8.390;2023-04-27T04:16:59;4.30;;;3.73;;
4694;SDS011;2361;49.540;8.390;2023-04-27T04:19:26;6.40;;;4.67;;
4694;SDS011;2361;49.540;8.390;2023-04-27T04:21:53;4.67;;;3.83;;
4694;SDS011;2361;49.540;8.390;2023-04-27T04:24:22;4.20;;;3.80;;
4694;SDS011;2361;49.540;8.390;2023-04-27T04:26:49;6.80;;;4.10;;
4694;SDS011;2361;49.540;8.390;2023-04-27T04:29:16;4.33;;;3.77;;
4694;SDS011;2361;49.540;8.390;2023-04-27T04:31:44;6.90;;;4.20;;
4694;SDS011;2361;49.540;8.390;2023-04-27T04:34:11;4.30;;;3.43;;
4694;SDS011;2361;49.540;8.390;2023-04-27T04:36:39;9.50;;;3.57;;
4694;SDS011;2361;49.540;8.390;2023-04-27T04:39:06;2.57;;;2.37;;
4694;SDS011;2361;49.540;8.390;2023-04-27T04:41:33;3.57;;;3.13;;
4694;SDS011;2361;49.540;8.390;2023-04-27T04:44:00;3.60;;;2.70;;
4694;SDS011;2361;49.540;8.390;2023-04-27T04:46:28;3.77;;;3.10;;
4694;SDS011;2361;49.540;8.390;2023-04-27T04:48:55;3.00;;;2.80;;
4694;SDS011;2361;49.540;8.390;2023-04-27T04:51:22;2.87;;;2.67;;
4694;SDS011;2361;49.540;8.390;2023-04-27T04:53:49;2.33;;;2.20;;
4694;SDS011;2361;49.540;8.390;2023-04-27T04:56:16;2.70;;;2.50;;
4694;SDS011;2361;49.540;8.390;2023-04-27T04:58:43;3.30;;;3.00;;
4694;SDS011;2361;49.540;8.390;2023-04-27T05:01:10;2.97;;;2.77;;
4694;SDS011;2361;49.540;8.390;2023-04-27T05:03:37;3.93;;;3.53;;
4694;SDS011;2361;49.540;8.390;2023-04-27T05:06:04;5.47;;;4.20;;
4694;SDS011;2361;49.540;8.390;2023-04-27T05:08:32;12.40;;;4.00;;
4694;SDS011;2361;49.540;8.390;2023-04-27T05:10:59;8.30;;;4.90;;
4694;SDS011;2361;49.540;8.390;2023-04-27T05:13:25;5.13;;;4.40;;
4694;SDS011;2361;49.540;8.390;2023-04-27T05:15:53;5.13;;;4.60;;
4694;SDS011;2361;49.540;8.390;2023-04-27T05:18:20;6.77;;;4.50;;
4694;SDS011;2361;49.540;8.390;2023-04-27T05:20:47;5.73;;;3.67;;
4694;SDS011;2361;49.540;8.390;2023-04-27T05:23:14;3.10;;;2.90;;
4694;SDS011;2361;49.540;8.390;2023-04-27T05:25:41;3.60;;;3.30;;
4694;SDS011;2361;49.540;8.390;2023-04-27T05:28:08;6.90;;;3.37;;
4694;SDS011;2361;49.540;8.390;2023-04-27T05:30:36;4.00;;;3.60;;
4694;SDS011;2361;49.540;8.390;2023-04-27T05:33:03;4.17;;;3.60;;
4694;SDS011;2361;49.540;8.390;2023-04-27T05:35:31;3.33;;;3.07;;
4694;SDS011;2361;49.540;8.390;2023-04-27T05:37:58;4.70;;;3.70;;
4694;SDS011;2361;49.540;8.390;2023-04-27T05:40:25;7.27;;;4.00;;
4694;SDS011;2361;49.540;8.390;2023-04-27T05:42:53;4.37;;;3.90;;
4694;SDS011;2361;49.540;8.390;2023-04-27T05:45:20;4.50;;;3.90;;
4694;SDS011;2361;49.540;8.390;2023-04-27T05:47:47;6.87;;;4.10;;
4694;SDS011;2361;49.540;8.390;2023-04-27T05:50:14;3.90;;;3.60;;
4694;SDS011;2361;49.540;8.390;2023-04-27T05:52:41;7.50;;;3.63;;
4694;SDS011;2361;49.540;8.390;2023-04-27T05:55:08;5.07;;;3.00;;
4694;SDS011;2361;49.540;8.390;2023-04-27T05:57:35;3.37;;;3.07;;
4694;SDS011;2361;49.540;8.390;2023-04-27T06:00:03;3.93;;;3.53;;
4694;SDS011;2361;49.540;8.390;2023-04-27T06:02:35;3.57;;;3.27;;
4694;SDS011;2361;49.540;8.390;2023-04-27T06:05:02;4.80;;;3.60;;
4694;SDS011;2361;49.540;8.390;2023-04-27T06:07:29;5.07;;;4.07;;
4694;SDS011;2361;49.540;8.390;2023-04-27T06:09:56;14.37;;;4.00;;
4694;SDS011;2361;49.540;8.390;2023-04-27T06:12:23;4.50;;;3.80;;
4694;SDS011;2361;49.540;8.390;2023-04-27T06:14:50;4.57;;;3.43;;
4694;SDS011;2361;49.540;8.390;2023-04-27T06:17:17;5.97;;;3.80;;
4694;SDS011;2361;49.540;8.390;2023-04-27T06:19:46;6.80;;;4.20;;
4694;SDS011;2361;49.540;8.390;2023-04-27T06:22:13;4.97;;;4.37;;
4694;SDS011;2361;49.540;8.390;2023-04-27T06:24:41;5.80;;;4.03;;
4694;SDS011;2361;49.540;8.390;2023-04-27T06:27:07;3.93;;;3.23;;
4694;SDS011;2361;49.540;8.390;2023-04-27T06:29:35;4.67;;;4.00;;
4694;SDS011;2361;49.540;8.390;2023-04-27T06:32:01;5.17;;;4.30;;
4694;SDS011;2361;49.540;8.390;2023-04-27T06:34:34;4.80;;;4.20;;
4694;SDS011;2361;49.540;8.390;2023-04-27T06:37:02;7.83;;;4.60;;
4694;SDS011;2361;49.540;8.390;2023-04-27T06:39:28;4.77;;;4.00;;
4694;SDS011;2361;49.540;8.390;2023-04-27T06:41:57;3.83;;;3.50;;
4694;SDS011;2361;49.540;8.390;2023-04-27T06:44:24;9.73;;;4.40;;
4694;SDS011;2361;49.540;8.390;2023-04-27T06:46:51;4.23;;;3.83;;
4694;SDS011;2361;49.540;8.390;2023-04-27T06:49:18;4.57;;;4.17;;
4694;SDS011;2361;49.540;8.390;2023-04-27T06:51:45;5.43;;;4.10;;
4694;SDS011;2361;49.540;8.390;2023-04-27T06:54:13;7.73;;;4.73;;
4694;SDS011;2361;49.540;8.390;2023-04-27T06:56:40;4.50;;;4.10;;
4694;SDS011;2361;49.540;8.390;2023-04-27T06:59:07;4.87;;;3.70;;
4694;SDS011;2361;49.540;8.390;2023-04-27T07:01:34;5.40;;;4.27;;
4694;SDS011;2361;49.540;8.390;2023-04-27T07:04:04;9.33;;;4.90;;
4694;SDS011;2361;49.540;8.390;2023-04-27T07:06:32;4.63;;;4.13;;
4694;SDS011;2361;49.540;8.390;2023-04-27T07:08:59;8.53;;;4.30;;
4694;SDS011;2361;49.540;8.390;2023-04-27T07:11:26;13.23;;;4.20;;
4694;SDS011;2361;49.540;8.390;2023-04-27T07:13:52;6.20;;;4.77;;
4694;SDS011;2361;49.540;8.390;2023-04-27T07:16:20;5.20;;;4.33;;
4694;SDS011;2361;49.540;8.390;2023-04-27T07:18:47;5.70;;;4.43;;
4694;SDS011;2361;49.540;8.390;2023-04-27T07:21:14;4.87;;;4.37;;
4694;SDS011;2361;49.540;8.390;2023-04-27T07:23:41;8.80;;;4.60;;
4694;SDS011;2361;49.540;8.390;2023-04-27T07:26:08;6.93;;;3.87;;
4694;SDS011;2361;49.540;8.390;2023-04-27T07:28:35;6.33;;;4.17;;
4694;SDS011;2361;49.540;8.390;2023-04-27T07:31:03;7.20;;;4.70;;
4694;SDS011;2361;49.540;8.390;2023-04-27T07:33:32;7.30;;;4.70;;
4694;SDS011;2361;49.540;8.390;2023-04-27T07:35:59;8.43;;;4.93;;
4694;SDS011;2361;49.540;8.390;2023-04-27T07:38:27;7.20;;;4.97;;
4694;SDS011;2361;49.540;8.390;2023-04-27T07:40:59;6.83;;;4.40;;
4694;SDS011;2361;49.540;8.390;2023-04-27T07:43:27;4.73;;;4.23;;
4694;SDS011;2361;49.540;8.390;2023-04-27T07:45:54;5.73;;;4.97;;
4694;SDS011;2361;49.540;8.390;2023-04-27T07:48:23;5.10;;;4.60;;
4694;SDS011;2361;49.540;8.390;2023-04-27T07:50:50;6.43;;;4.67;;
4694;SDS011;2361;49.540;8.390;2023-04-27T07:53:17;6.13;;;4.40;;
4694;SDS011;2361;49.540;8.390;2023-04-27T07:55:44;4.73;;;3.57;;
4694;SDS011;2361;49.540;8.390;2023-04-27T07:58:12;4.17;;;3.50;;
4694;SDS011;2361;49.540;8.390;2023-04-27T08:00:39;7.03;;;3.87;;
4694;SDS011;2361;49.540;8.390;2023-04-27T08:03:06;6.13;;;3.13;;
4694;SDS011;2361;49.540;8.390;2023-04-27T08:05:34;6.80;;;4.90;;
4694;SDS011;2361;49.540;8.390;2023-04-27T08:08:01;4.27;;;3.83;;
4694;SDS011;2361;49.540;8.390;2023-04-27T08:10:28;3.73;;;3.33;;
4694;SDS011;2361;49.540;8.390;2023-04-27T08:12:55;3.80;;;3.50;;
4694;SDS011;2361;49.540;8.390;2023-04-27T08:15:22;4.67;;;4.23;;
4694;SDS011;2361;49.540;8.390;2023-04-27T08:17:49;16.40;;;12.30;;
4694;SDS011;2361;49.540;8.390;2023-04-27T08:20:16;5.33;;;4.40;;
4694;SDS011;2361;49.540;8.390;2023-04-27T08:22:43;3.77;;;3.30;;
4694;SDS011;2361;49.540;8.390;2023-04-27T08:25:10;3.10;;;2.90;;
4694;SDS011;2361;49.540;8.390;2023-04-27T08:27:37;3.60;;;3.30;;
4694;SDS011;2361;49.540;8.390;2023-04-27T08:30:05;4.10;;;3.80;;
4694;SDS011;2361;49.540;8.390;2023-04-27T08:32:33;4.47;;;4.07;;
4694;SDS011;2361;49.540;8.390;2023-04-27T08:35:00;3.67;;;3.30;;
4694;SDS011;2361;49.540;8.390;2023-04-27T08:37:27;4.63;;;3.30;;
4694;SDS011;2361;49.540;8.390;2023-04-27T08:39:55;6.17;;;3.40;;
4694;SDS011;2361;49.540;8.390;2023-04-27T08:42:54;3.27;;;2.97;;
4694;SDS011;2361;49.540;8.390;2023-04-27T08:45:24;3.37;;;3.17;;
4694;SDS011;2361;49.540;8.390;2023-04-27T08:47:52;3.73;;;3.53;;
4694;SDS011;2361;49.540;8.390;2023-04-27T08:50:20;3.80;;;3.50;;
4694;SDS011;2361;49.540;8.390;2023-04-27T08:52:49;7.50;;;3.77;;
4694;SDS011;2361;49.540;8.390;2023-04-27T08:55:17;5.10;;;3.80;;
4694;SDS011;2361;49.540;8.390;2023-04-27T08:57:57;4.97;;;4.50;;
4694;SDS011;2361;49.540;8.390;2023-04-27T09:00:25;4.93;;;3.83;;
4694;SDS011;2361;49.540;8.390;2023-04-27T09:03:08;6.73;;;3.80;;
4694;SDS011;2361;49.540;8.390;2023-04-27T09:05:53;4.20;;;3.77;;
4694;SDS011;2361;49.540;8.390;2023-04-27T09:08:48;4.20;;;3.90;;
4694;SDS011;2361;49.540;8.390;2023-04-27T09:14:27;5.37;;;4.00;;
4694;SDS011;2361;49.540;8.390;2023-04-27T09:16:53;5.43;;;3.23;;
4694;SDS011;2361;49.540;8.390;2023-04-27T09:19:26;4.17;;;3.03;;
4694;SDS011;2361;49.540;8.390;2023-04-27T09:22:04;3.43;;;3.13;;
4694;SDS011;2361;49.540;8.390;2023-04-27T09:24:36;4.20;;;3.90;;
4694;SDS011;2361;49.540;8.390;2023-04-27T09:27:03;3.20;;;3.00;;
4694;SDS011;2361;49.540;8.390;2023-04-27T09:29:37;5.33;;;4.07;;
4694;SDS011;2361;49.540;8.390;2023-04-27T09:32:13;4.33;;;3.93;;
4694;SDS011;2361;49.540;8.390;2023-04-27T09:34:46;5.90;;;4.63;;
4694;SDS011;2361;49.540;8.390;2023-04-27T09:37:13;4.67;;;4.23;;
4694;SDS011;2361;49.540;8.390;2023-04-27T09:39:41;3.47;;;3.27;;
4694;SDS011;2361;49.540;8.390;2023-04-27T09:42:08;5.13;;;4.60;;
4694;SDS011;2361;49.540;8.390;2023-04-27T09:44:37;5.63;;;5.13;;
4694;SDS011;2361;49.540;8.390;2023-04-27T09:47:04;5.30;;;4.90;;
4694;SDS011;2361;49.540;8.390;2023-04-27T09:49:32;5.00;;;4.60;;
4694;SDS011;2361;49.540;8.390;2023-04-27T09:52:01;4.20;;;3.90;;
4694;SDS011;2361;49.540;8.390;2023-04-27T09:54:28;4.60;;;4.20;;
4694;SDS011;2361;49.540;8.390;2023-04-27T09:57:17;10.43;;;3.90;;
4694;SDS011;2361;49.540;8.390;2023-04-27T10:03:50;5.10;;;4.60;;
4694;SDS011;2361;49.540;8.390;2023-04-27T10:06:26;4.67;;;4.00;;
4694;SDS011;2361;49.540;8.390;2023-04-27T10:09:23;3.90;;;3.60;;
4694;SDS011;2361;49.540;8.390;2023-04-27T10:11:53;5.00;;;4.60;;
4694;SDS011;2361;49.540;8.390;2023-04-27T10:14:21;6.30;;;4.73;;
4694;SDS011;2361;49.540;8.390;2023-04-27T10:16:51;5.70;;;3.80;;
4694;SDS011;2361;49.540;8.390;2023-04-27T10:19:24;6.23;;;3.87;;
4694;SDS011;2361;49.540;8.390;2023-04-27T10:24:33;5.00;;;4.27;;
4694;SDS011;2361;49.540;8.390;2023-04-27T10:27:06;6.13;;;4.20;;
4694;SDS011;2361;49.540;8.390;2023-04-27T10:32:12;4.77;;;4.27;;
4694;SDS011;2361;49.540;8.390;2023-04-27T10:34:44;5.87;;;3.97;;
4694;SDS011;2361;49.540;8.390;2023-04-27T10:37:12;4.80;;;4.30;;
4694;SDS011;2361;49.540;8.390;2023-04-27T10:39:41;6.67;;;3.90;;
4694;SDS011;2361;49.540;8.390;2023-04-27T10:42:24;3.53;;;3.23;;
4694;SDS011;2361;49.540;8.390;2023-04-27T10:44:55;5.23;;;3.40;;
4694;SDS011;2361;49.540;8.390;2023-04-27T10:47:23;4.00;;;3.47;;
4694;SDS011;2361;49.540;8.390;2023-04-27T10:50:01;5.17;;;3.97;;
4694;SDS011;2361;49.540;8.390;2023-04-27T10:52:30;4.30;;;3.90;;
4694;SDS011;2361;49.540;8.390;2023-04-27T10:55:03;6.73;;;3.50;;
4694;SDS011;2361;49.540;8.390;2023-04-27T10:57:52;6.80;;;3.80;;
4694;SDS011;2361;49.540;8.390;2023-04-27T11:00:21;7.47;;;3.63;;
4694;SDS011;2361;49.540;8.390;2023-04-27T11:03:08;8.03;;;4.63;;
4694;SDS011;2361;49.540;8.390;2023-04-27T11:05:41;8.23;;;4.20;;
4694;SDS011;2361;49.540;8.390;2023-04-27T11:08:19;7.03;;;4.50;;
4694;SDS011;2361;49.540;8.390;2023-04-27T11:10:47;7.43;;;3.90;;
4694;SDS011;2361;49.540;8.390;2023-04-27T11:13:17;5.27;;;3.10;;
4694;SDS011;2361;49.540;8.390;2023-04-27T11:18:22;5.77;;;3.40;;
4694;SDS011;2361;49.540;8.390;2023-04-27T11:20:54;5.27;;;3.50;;
4694;SDS011;2361;49.540;8.390;2023-04-27T11:23:38;7.47;;;2.93;;
4694;SDS011;2361;49.540;8.390;2023-04-27T11:26:09;6.10;;;4.20;;
4694;SDS011;2361;49.540;8.390;2023-04-27T11:28:43;3.90;;;3.60;;
4694;SDS011;2361;49.540;8.390;2023-04-27T11:31:23;3.57;;;2.73;;
4694;SDS011;2361;49.540;8.390;2023-04-27T11:33:51;4.30;;;3.33;;
4694;SDS011;2361;49.540;8.390;2023-04-27T11:36:19;3.10;;;2.80;;
4694;SDS011;2361;49.540;8.390;2023-04-27T11:38:48;3.40;;;3.00;;
4694;SDS011;2361;49.540;8.390;2023-04-27T11:41:15;3.17;;;2.83;;
4694;SDS011;2361;49.540;8.390;2023-04-27T11:43:42;4.27;;;3.20;;
4694;SDS011;2361;49.540;8.390;2023-04-27T11:46:14;3.60;;;2.30;;
4694;SDS011;2361;49.540;8.390;2023-04-27T11:48:45;4.70;;;2.60;;
4694;SDS011;2361;49.540;8.390;2023-04-27T11:51:12;3.20;;;2.90;;
4694;SDS011;2361;49.540;8.390;2023-04-27T11:53:39;4.03;;;2.90;;
4694;SDS011;2361;49.540;8.390;2023-04-27T11:56:08;3.83;;;3.07;;
4694;SDS011;2361;49.540;8.390;2023-04-27T11:58:36;2.20;;;2.07;;
4694;SDS011;2361;49.540;8.390;2023-04-27T12:01:05;4.87;;;3.30;;
4694;SDS011;2361;49.540;8.390;2023-04-27T12:03:32;4.30;;;3.17;;
4694;SDS011;2361;49.540;8.390;2023-04-27T12:06:00;9.50;;;5.57;;
4694;SDS011;2361;49.540;8.390;2023-04-27T12:08:30;3.30;;;3.00;;
4694;SDS011;2361;49.540;8.390;2023-04-27T12:10:57;6.77;;;3.67;;
4694;SDS011;2361;49.540;8.390;2023-04-27T12:13:24;4.67;;;3.07;;
4694;SDS011;2361;49.540;8.390;2023-04-27T12:15:51;2.60;;;2.40;;
4694;SDS011;2361;49.540;8.390;2023-04-27T12:18:18;4.10;;;2.90;;
4694;SDS011;2361;49.540;8.390;2023-04-27T12:20:45;7.87;;;3.70;;
4694;SDS011;2361;49.540;8.390;2023-04-27T12:23:12;8.37;;;5.60;;
4694;SDS011;2361;49.540;8.390;2023-04-27T12:25:39;8.33;;;5.40;;
4694;SDS011;2361;49.540;8.390;2023-04-27T12:28:06;8.30;;;5.60;;
4694;SDS011;2361;49.540;8.390;2023-04-27T12:30:34;7.53;;;5.80;;
4694;SDS011;2361;49.540;8.390;2023-04-27T12:33:01;6.53;;;5.30;;
4694;SDS011;2361;49.540;8.390;2023-04-27T12:35:34;6.77;;;4.53;;
4694;SDS011;2361;49.540;8.390;2023-04-27T12:38:02;9.73;;;5.83;;
4694;SDS011;2361;49.540;8.390;2023-04-27T12:40:28;5.90;;;4.80;;
4694;SDS011;2361;49.540;8.390;2023-04-27T12:42:55;14.47;;;6.37;;
4694;SDS011;2361;49.540;8.390;2023-04-27T12:45:25;11.03;;;5.63;;
4694;SDS011;2361;49.540;8.390;2023-04-27T12:47:52;7.30;;;4.70;;
4694;SDS011;2361;49.540;8.390;2023-04-27T12:50:29;9.63;;;5.77;;
4694;SDS011;2361;49.540;8.390;2023-04-27T12:53:02;11.20;;;6.87;;
4694;SDS011;2361;49.540;8.390;2023-04-27T12:55:31;10.63;;;6.63;;
4694;SDS011;2361;49.540;8.390;2023-04-27T12:57:59;9.33;;;5.90;;
4694;SDS011;2361;49.540;8.390;2023-04-27T13:00:27;9.83;;;4.77;;
4694;SDS011;2361;49.540;8.390;2023-04-27T13:02:55;8.40;;;5.33;;
4694;SDS011;2361;49.540;8.390;2023-04-27T13:05:22;9.07;;;5.63;;
4694;SDS011;2361;49.540;8.390;2023-04-27T13:07:49;10.43;;;5.83;;
4694;SDS011;2361;49.540;8.390;2023-04-27T13:10:17;10.83;;;6.17;;
4694;SDS011;2361;49.540;8.390;2023-04-27T13:12:44;8.63;;;5.20;;
4694;SDS011;2361;49.540;8.390;2023-04-27T13:15:11;14.50;;;6.67;;
4694;SDS011;2361;49.540;8.390;2023-04-27T13:17:38;8.17;;;5.20;;
4694;SDS011;2361;49.540;8.390;2023-04-27T13:20:07;11.53;;;6.30;;
4694;SDS011;2361;49.540;8.390;2023-04-27T13:22:35;8.57;;;6.83;;
4694;SDS011;2361;49.540;8.390;2023-04-27T13:25:01;11.83;;;6.47;;
4694;SDS011;2361;49.540;8.390;2023-04-27T13:27:30;6.17;;;5.07;;
4694;SDS011;2361;49.540;8.390;2023-04-27T13:29:57;6.90;;;5.80;;
4694;SDS011;2361;49.540;8.390;2023-04-27T13:32:24;5.50;;;4.37;;
4694;SDS011;2361;49.540;8.390;2023-04-27T13:34:51;5.73;;;4.20;;
4694;SDS011;2361;49.540;8.390;2023-04-27T13:37:18;9.40;;;5.10;;
4694;SDS011;2361;49.540;8.390;2023-04-27T13:39:45;7.70;;;5.33;;
4694;SDS011;2361;49.540;8.390;2023-04-27T13:42:12;6.10;;;5.10;;
4694;SDS011;2361;49.540;8.390;2023-04-27T13:44:39;4.13;;;3.40;;
4694;SDS011;2361;49.540;8.390;2023-04-27T13:47:06;2.43;;;2.27;;
4694;SDS011;2361;49.540;8.390;2023-04-27T13:49:33;2.50;;;2.30;;
4694;SDS011;2361;49.540;8.390;2023-04-27T13:52:01;3.80;;;2.43;;
4694;SDS011;2361;49.540;8.390;2023-04-27T13:54:28;2.60;;;2.23;;
4694;SDS011;2361;49.540;8.390;2023-04-27T13:56:55;2.50;;;2.20;;
4694;SDS011;2361;49.540;8.390;2023-04-27T13:59:25;3.13;;;2.57;;
4694;SDS011;2361;49.540;8.390;2023-04-27T14:01:52;3.77;;;2.33;;
4694;SDS011;2361;49.540;8.390;2023-04-27T14:04:19;3.37;;;3.10;;
4694;SDS011;2361;49.540;8.390;2023-04-27T14:06:46;2.83;;;2.60;;
4694;SDS011;2361;49.540;8.390;2023-04-27T14:09:14;5.20;;;2.40;;
4694;SDS011;2361;49.540;8.390;2023-04-27T14:11:41;3.10;;;2.60;;
4694;SDS011;2361;49.540;8.390;2023-04-27T14:14:20;2.90;;;2.60;;
4694;SDS011;2361;49.540;8.390;2023-04-27T14:16:48;2.60;;;2.43;;
4694;SDS011;2361;49.540;8.390;2023-04-27T14:19:18;5.30;;;2.90;;
4694;SDS011;2361;49.540;8.390;2023-04-27T14:21:46;4.73;;;2.80;;
4694;SDS011;2361;49.540;8.390;2023-04-27T14:24:14;3.93;;;2.70;;
4694;SDS011;2361;49.540;8.390;2023-04-27T14:26:41;2.70;;;2.50;;
4694;SDS011;2361;49.540;8.390;2023-04-27T14:29:09;3.47;;;2.80;;
4694;SDS011;2361;49.540;8.390;2023-04-27T14:31:37;4.07;;;2.70;;
4694;SDS011;2361;49.540;8.390;2023-04-27T14:34:05;5.83;;;2.73;;
4694;SDS011;2361;49.540;8.390;2023-04-27T14:36:33;3.60;;;1.83;;
4694;SDS011;2361;49.540;8.390;2023-04-27T14:39:01;7.80;;;4.10;;
4694;SDS011;2361;49.540;8.390;2023-04-27T14:41:29;2.90;;;2.47;;
4694;SDS011;2361;49.540;8.390;2023-04-27T14:43:56;3.53;;;3.30;;
4694;SDS011;2361;49.540;8.390;2023-04-27T14:46:23;5.00;;;2.43;;
4694;SDS011;2361;49.540;8.390;2023-04-27T14:48:50;5.13;;;2.90;;
4694;SDS011;2361;49.540;8.390;2023-04-27T14:51:17;3.10;;;2.93;;
4694;SDS011;2361;49.540;8.390;2023-04-27T14:53:44;4.50;;;2.80;;
4694;SDS011;2361;49.540;8.390;2023-04-27T14:56:11;3.17;;;2.90;;
4694;SDS011;2361;49.540;8.390;2023-04-27T14:58:38;2.03;;;1.83;;
4694;SDS011;2361;49.540;8.390;2023-04-27T15:01:06;2.30;;;2.10;;
4694;SDS011;2361;49.540;8.390;2023-04-27T15:03:33;2.27;;;2.07;;
4694;SDS011;2361;49.540;8.390;2023-04-27T15:06:00;7.30;;;2.73;;
4694;SDS011;2361;49.540;8.390;2023-04-27T15:08:28;2.80;;;2.60;;
4694;SDS011;2361;49.540;8.390;2023-04-27T15:10:58;2.90;;;2.30;;
4694;SDS011;2361;49.540;8.390;2023-04-27T15:13:25;3.83;;;2.50;;
4694;SDS011;2361;49.540;8.390;2023-04-27T15:15:53;2.17;;;2.00;;
4694;SDS011;2361;49.540;8.390;2023-04-27T15:18:21;4.60;;;2.60;;
4694;SDS011;2361;49.540;8.390;2023-04-27T15:20:58;3.13;;;2.80;;
4694;SDS011;2361;49.540;8.390;2023-04-27T15:23:25;4.93;;;4.00;;
4694;SDS011;2361;49.540;8.390;2023-04-27T15:25:53;3.27;;;2.80;;
4694;SDS011;2361;49.540;8.390;2023-04-27T15:28:22;4.40;;;3.77;;
4694;SDS011;2361;49.540;8.390;2023-04-27T15:30:49;3.93;;;3.50;;
4694;SDS011;2361;49.540;8.390;2023-04-27T15:33:16;6.50;;;3.40;;
4694;SDS011;2361;49.540;8.390;2023-04-27T15:35:44;4.40;;;3.50;;
4694;SDS011;2361;49.540;8.390;2023-04-27T15:38:11;4.80;;;3.67;;